aviador You're here:

KRCE Decoded Metar

CLARENCE E in OK, USA
Report Time2017-04-25 09:15:00
UTC Time2017-04-25 08:23:03
Flight Rules vfr VFR
Wind180° at 19 Gusting to 25 kt
W.Decomp.*RWY 17: 19.0 kt HW 1.0 kt RCW
W.Rank180° ranks 2
Current wind is above 180° avg. (12.5)
Visibility9999 m
Phenomena:N/A
Clouds:N/A
Expected CloudBase > 2,800 ft AGL from Temp-Dew spread
CeilingNone
Temp17°C (ISA +5)
Dew Point10°C (64% RH)
AAT10.2°C
QNH997 hPa
Density Alt2,618 ft
Elevation1,354 ft
Report Wrong Elevation
Raw Report
KRCE 250915Z AUTO 18019G25KT 10SM CLR 17/10 A2945 RMK AO2=

Extra information for KRCE:More info

Metar Taf Metar & Taf Last 4 Metars F.Rules Stats Wind Profile Meteogram Temp Stats Airport Information Weather charts Add Link Nearby VenuesMetar ALERT Operation Metar Decoded Social comments

AIRNAV info for KRCE